Time;durP1;ratioP1;P1;durP2;ratioP2;P2;SDS_P1;SDS_P2;PMS_P1;PMS_P2;Temp;Humidity;BMP_temperature;BMP_pressure;BME280_temperature;BME280_humidity;BME280_pressure;Samples;Min_cycle;Max_cycle;Signal;HPM_P1;HPM_P2
2023/04/12 00:01:44;;;;;;;16.15;8.80;;;;;;;;;;4920597;28;20039;-70
2023/04/12 00:04:09;;;;;;;13.07;7.85;;;;;;;;;;4942599;28;20084;-70
2023/04/12 00:06:35;;;;;;;15.35;7.50;;;;;;;;;;4930504;28;20653;-70
2023/04/12 00:09:03;;;;;;;14.63;7.93;;;;;;;;;;4921107;28;20051;-70
2023/04/12 00:11:30;;;;;;;16.55;8.30;;;;;;;;;;4920955;28;20039;-71
2023/04/12 00:13:55;;;;;;;19.63;9.23;;;;;;;;;;4920430;28;20039;-72
2023/04/12 00:16:21;;;;;;;14.15;8.95;;;;;;;;;;4923006;28;20035;-71
2023/04/12 00:18:46;;;;;;;15.25;8.60;;;;;;;;;;4920505;28;20142;-71
2023/04/12 00:21:18;;;;;;;17.23;8.50;;;;;;;;;;4921854;28;20113;-71
2023/04/12 00:23:44;;;;;;;14.98;8.65;;;;;;;;;;4920854;28;20106;-70
2023/04/12 00:26:10;;;;;;;18.48;8.80;;;;;;;;;;4923621;28;20063;-72
2023/04/12 00:28:36;;;;;;;17.25;8.35;;;;;;;;;;4923095;28;20052;-71
2023/04/12 00:31:01;;;;;;;15.02;8.05;;;;;;;;;;4935819;28;20038;-70
2023/04/12 00:33:26;;;;;;;16.55;7.88;;;;;;;;;;4926427;28;22341;-71
2023/04/12 00:35:56;;;;;;;14.55;8.68;;;;;;;;;;4920497;28;20043;-71
2023/04/12 00:38:22;;;;;;;14.13;7.95;;;;;;;;;;4919577;28;20051;-71
2023/04/12 00:40:49;;;;;;;13.15;8.18;;;;;;;;;;4930524;28;20767;-69
2023/04/12 00:43:17;;;;;;;15.25;8.27;;;;;;;;;;4936579;28;20120;-71
2023/04/12 00:45:43;;;;;;;15.68;8.38;;;;;;;;;;4916237;28;20130;-71
2023/04/12 00:48:08;;;;;;;16.25;8.25;;;;;;;;;;4918262;28;20715;-70
2023/04/12 00:50:34;;;;;;;16.58;8.95;;;;;;;;;;4918886;28;20091;-69
2023/04/12 00:52:59;;;;;;;17.83;9.15;;;;;;;;;;4919492;28;20050;-71
2023/04/12 00:55:24;;;;;;;16.25;8.50;;;;;;;;;;4913801;28;20089;-70
2023/04/12 00:57:50;;;;;;;14.85;8.65;;;;;;;;;;4936637;28;20040;-70
2023/04/12 01:00:16;;;;;;;12.80;7.70;;;;;;;;;;4920685;28;20594;-69
2023/04/12 01:02:45;;;;;;;16.08;7.85;;;;;;;;;;4935487;28;20116;-70
2023/04/12 01:05:13;;;;;;;14.75;7.10;;;;;;;;;;4949972;28;20039;-71
2023/04/12 01:07:43;;;;;;;16.75;6.95;;;;;;;;;;4921696;28;20039;-69
2023/04/12 01:10:15;;;;;;;11.98;7.32;;;;;;;;;;4933429;28;20122;-70
2023/04/12 01:12:50;;;;;;;13.45;7.47;;;;;;;;;;4950532;28;20031;-71
2023/04/12 01:15:15;;;;;;;11.93;6.65;;;;;;;;;;4920543;28;20047;-71
2023/04/12 01:17:50;;;;;;;14.63;7.25;;;;;;;;;;4920578;28;20079;-71
2023/04/12 01:20:22;;;;;;;13.70;7.10;;;;;;;;;;4915063;28;20035;-70
2023/04/12 01:23:06;;;;;;;14.38;7.93;;;;;;;;;;4920881;28;20059;-70
2023/04/12 01:25:38;;;;;;;14.48;6.22;;;;;;;;;;4920930;28;20032;-72
2023/04/12 01:28:03;;;;;;;10.63;6.78;;;;;;;;;;4916757;28;20040;-70
2023/04/12 01:30:30;;;;;;;11.65;6.55;;;;;;;;;;4934987;28;20142;-72
2023/04/12 01:32:59;;;;;;;13.98;6.75;;;;;;;;;;4920283;28;20050;-72
2023/04/12 01:35:29;;;;;;;13.38;6.60;;;;;;;;;;4934897;28;20097;-72
2023/04/12 01:37:56;;;;;;;13.07;6.15;;;;;;;;;;4918360;28;20039;-69
2023/04/12 01:40:26;;;;;;;9.73;6.28;;;;;;;;;;4918432;28;20040;-71
2023/04/12 01:43:12;;;;;;;12.38;6.35;;;;;;;;;;4923263;28;20042;-71
2023/04/12 01:45:40;;;;;;;12.55;5.78;;;;;;;;;;4919339;28;20492;-70
2023/04/12 01:48:08;;;;;;;13.90;5.82;;;;;;;;;;4912293;28;20031;-71
2023/04/12 01:50:35;;;;;;;10.02;6.15;;;;;;;;;;4920503;28;20046;-73
2023/04/12 01:53:04;;;;;;;11.52;5.97;;;;;;;;;;4922076;28;20077;-73
2023/04/12 01:55:35;;;;;;;9.98;6.03;;;;;;;;;;4920635;28;20564;-72
2023/04/12 01:58:01;;;;;;;11.63;6.47;;;;;;;;;;4918736;28;20035;-72
2023/04/12 02:00:30;;;;;;;12.95;6.60;;;;;;;;;;4904419;28;20062;-73
2023/04/12 02:02:56;;;;;;;11.75;6.22;;;;;;;;;;4950264;28;20065;-72
2023/04/12 02:05:22;;;;;;;18.63;6.78;;;;;;;;;;4921054;28;20032;-72
2023/04/12 02:07:47;;;;;;;9.90;6.10;;;;;;;;;;4920034;28;20518;-72
2023/04/12 02:10:13;;;;;;;11.38;6.32;;;;;;;;;;4920555;28;20059;-72
2023/04/12 02:12:39;;;;;;;10.32;6.38;;;;;;;;;;4918490;28;20609;-74
2023/04/12 02:15:06;;;;;;;11.40;6.55;;;;;;;;;;4933950;28;20107;-74
2023/04/12 02:17:32;;;;;;;11.88;6.10;;;;;;;;;;4929622;28;20062;-73
2023/04/12 02:19:58;;;;;;;11.20;6.30;;;;;;;;;;4931610;28;20574;-74
2023/04/12 02:22:23;;;;;;;10.43;5.43;;;;;;;;;;4920295;28;20089;-71
2023/04/12 02:24:49;;;;;;;10.63;6.05;;;;;;;;;;4930446;28;20043;-74
2023/04/12 02:27:17;;;;;;;8.70;5.38;;;;;;;;;;4914509;28;20053;-72
2023/04/12 02:29:45;;;;;;;12.27;5.63;;;;;;;;;;4922722;28;20161;-71
2023/04/12 02:32:11;;;;;;;10.30;5.70;;;;;;;;;;4919916;28;20035;-74
2023/04/12 02:34:41;;;;;;;8.55;4.90;;;;;;;;;;4920412;28;20082;-73
2023/04/12 02:37:07;;;;;;;9.02;4.85;;;;;;;;;;4920469;28;20058;-73
2023/04/12 02:39:35;;;;;;;15.07;5.60;;;;;;;;;;4920805;28;20909;-73
2023/04/12 02:42:00;;;;;;;12.50;5.35;;;;;;;;;;4942782;28;20050;-73
2023/04/12 02:44:27;;;;;;;9.02;5.05;;;;;;;;;;4918698;28;20186;-72
2023/04/12 02:46:55;;;;;;;9.88;5.18;;;;;;;;;;4919973;28;20043;-73
2023/04/12 02:49:23;;;;;;;8.35;5.20;;;;;;;;;;4927903;28;20043;-73
2023/04/12 02:51:51;;;;;;;12.90;4.95;;;;;;;;;;4918219;28;20043;-73
2023/04/12 02:54:16;;;;;;;10.20;5.65;;;;;;;;;;4919540;28;20043;-72
2023/04/12 02:56:43;;;;;;;9.02;4.93;;;;;;;;;;4922824;28;20043;-73
2023/04/12 02:59:09;;;;;;;13.43;6.25;;;;;;;;;;4918718;28;20139;-73
2023/04/12 03:01:34;;;;;;;8.48;5.05;;;;;;;;;;4919768;28;20043;-71
2023/04/12 03:04:00;;;;;;;13.23;5.57;;;;;;;;;;4917561;28;20055;-73
2023/04/12 03:06:30;;;;;;;11.63;5.53;;;;;;;;;;4931877;28;20047;-73
2023/04/12 03:08:56;;;;;;;10.70;5.40;;;;;;;;;;4950794;28;20553;-73
2023/04/12 03:11:24;;;;;;;10.73;5.00;;;;;;;;;;4923525;28;20057;-72
2023/04/12 03:13:51;;;;;;;10.13;5.60;;;;;;;;;;4919116;28;20035;-73
2023/04/12 03:16:22;;;;;;;10.77;4.82;;;;;;;;;;4916088;28;20042;-73
2023/04/12 03:18:47;;;;;;;11.60;6.07;;;;;;;;;;4920309;28;20077;-72
2023/04/12 03:21:12;;;;;;;9.88;5.18;;;;;;;;;;4923586;28;20037;-72
2023/04/12 03:23:38;;;;;;;12.70;6.20;;;;;;;;;;4919504;28;20047;-72
2023/04/12 03:26:03;;;;;;;10.07;6.07;;;;;;;;;;4918313;28;20052;-72
2023/04/12 03:28:28;;;;;;;8.93;5.10;;;;;;;;;;4923453;28;21101;-72
2023/04/12 03:30:54;;;;;;;10.32;5.15;;;;;;;;;;4952094;28;20049;-72
2023/04/12 03:33:19;;;;;;;10.80;5.43;;;;;;;;;;4915781;28;20745;-71
2023/04/12 03:35:44;;;;;;;7.25;4.20;;;;;;;;;;4923083;28;20048;-70
2023/04/12 03:38:10;;;;;;;10.65;5.35;;;;;;;;;;4923618;28;20386;-70
2023/04/12 03:40:35;;;;;;;12.10;5.30;;;;;;;;;;4924931;28;20128;-71
2023/04/12 03:43:00;;;;;;;13.20;5.10;;;;;;;;;;4921441;28;20043;-72
2023/04/12 03:45:26;;;;;;;12.93;5.40;;;;;;;;;;4924813;28;20035;-72
2023/04/12 03:47:51;;;;;;;15.23;6.72;;;;;;;;;;4905443;28;20101;-71
2023/04/12 03:50:17;;;;;;;10.13;5.20;;;;;;;;;;4952045;28;20092;-73
2023/04/12 03:52:43;;;;;;;12.50;5.53;;;;;;;;;;4922208;28;20136;-72
2023/04/12 03:55:08;;;;;;;9.65;5.00;;;;;;;;;;4921627;28;20603;-71
2023/04/12 03:57:35;;;;;;;7.60;4.45;;;;;;;;;;4918276;28;20665;-72
2023/04/12 04:00:01;;;;;;;10.95;5.38;;;;;;;;;;4923469;28;22071;-71
2023/04/12 04:02:26;;;;;;;16.75;5.40;;;;;;;;;;4937453;28;20047;-71
2023/04/12 04:04:51;;;;;;;10.45;4.85;;;;;;;;;;4919022;28;20075;-71
2023/04/12 04:07:17;;;;;;;12.88;5.60;;;;;;;;;;4921140;28;20045;-72
2023/04/12 04:09:42;;;;;;;10.00;4.93;;;;;;;;;;4921339;28;20039;-71
2023/04/12 04:12:07;;;;;;;10.65;4.72;;;;;;;;;;4923480;28;20067;-72
2023/04/12 04:14:35;;;;;;;10.85;5.72;;;;;;;;;;4921708;28;21010;-71
2023/04/12 04:17:00;;;;;;;10.20;5.07;;;;;;;;;;4922464;28;20031;-70
2023/04/12 04:19:26;;;;;;;15.43;8.18;;;;;;;;;;4921533;28;20050;-71
2023/04/12 04:21:51;;;;;;;11.38;6.78;;;;;;;;;;4923602;28;20387;-71
2023/04/12 04:24:17;;;;;;;12.52;6.40;;;;;;;;;;4946421;28;20161;-71
2023/04/12 04:26:44;;;;;;;22.80;11.40;;;;;;;;;;4922030;28;20054;-72
2023/04/12 04:29:10;;;;;;;21.48;11.48;;;;;;;;;;4922703;28;20046;-72
2023/04/12 04:31:36;;;;;;;14.98;9.05;;;;;;;;;;4921083;28;20053;-71
2023/04/12 04:34:06;;;;;;;16.63;8.27;;;;;;;;;;4919488;28;20043;-71
2023/04/12 04:36:32;;;;;;;27.15;13.23;;;;;;;;;;4920658;28;20067;-71
2023/04/12 04:39:00;;;;;;;17.45;9.63;;;;;;;;;;4919745;28;20114;-72
2023/04/12 04:41:27;;;;;;;17.50;10.73;;;;;;;;;;4933709;28;22473;-72
2023/04/12 04:43:55;;;;;;;16.85;9.73;;;;;;;;;;4920686;28;20051;-70
2023/04/12 04:46:20;;;;;;;14.18;9.38;;;;;;;;;;4933152;28;20040;-70
2023/04/12 04:48:50;;;;;;;15.52;8.75;;;;;;;;;;4921566;28;20047;-70
2023/04/12 04:51:16;;;;;;;17.30;12.32;;;;;;;;;;4921128;28;20039;-69
2023/04/12 04:53:41;;;;;;;18.77;13.93;;;;;;;;;;4905029;28;20151;-70
2023/04/12 04:56:07;;;;;;;13.25;10.80;;;;;;;;;;4919726;28;20840;-71
2023/04/12 04:58:32;;;;;;;11.95;10.25;;;;;;;;;;4921988;28;20798;-71
2023/04/12 05:00:58;;;;;;;13.10;9.18;;;;;;;;;;4921237;28;20032;-70
2023/04/12 05:03:26;;;;;;;16.75;10.93;;;;;;;;;;4919475;28;20051;-70
2023/04/12 05:05:52;;;;;;;15.48;10.88;;;;;;;;;;4917932;28;20043;-71
2023/04/12 05:08:17;;;;;;;22.08;10.88;;;;;;;;;;4918413;28;20093;-70
2023/04/12 05:10:43;;;;;;;25.77;12.60;;;;;;;;;;4920260;28;20040;-71
2023/04/12 05:13:08;;;;;;;21.88;12.30;;;;;;;;;;4923288;28;20043;-70
2023/04/12 05:15:34;;;;;;;21.42;13.38;;;;;;;;;;4903246;28;20046;-70
2023/04/12 05:18:02;;;;;;;21.90;10.95;;;;;;;;;;4919104;28;20142;-69
2023/04/12 05:20:27;;;;;;;18.33;8.80;;;;;;;;;;4914094;28;20151;-70
2023/04/12 05:22:53;;;;;;;21.05;8.95;;;;;;;;;;4920897;28;20810;-69
2023/04/12 05:25:20;;;;;;;20.02;8.85;;;;;;;;;;4922652;28;20243;-70
2023/04/12 05:27:46;;;;;;;27.38;8.30;;;;;;;;;;4915512;28;20822;-70
2023/04/12 05:30:13;;;;;;;28.05;8.38;;;;;;;;;;4921646;28;20071;-71
2023/04/12 05:32:39;;;;;;;27.17;7.47;;;;;;;;;;4925419;28;20050;-71
2023/04/12 05:35:05;;;;;;;22.00;7.63;;;;;;;;;;4913494;28;20392;-71
2023/04/12 05:37:31;;;;;;;31.63;7.43;;;;;;;;;;4917048;28;20039;-70
2023/04/12 05:39:56;;;;;;;31.58;7.10;;;;;;;;;;4915612;28;20056;-70
2023/04/12 05:42:23;;;;;;;30.23;6.97;;;;;;;;;;4917811;28;20040;-70
2023/04/12 05:44:49;;;;;;;30.05;6.18;;;;;;;;;;4926043;28;20051;-71
2023/04/12 05:47:15;;;;;;;34.63;6.22;;;;;;;;;;4923520;28;20039;-70
2023/04/12 05:49:40;;;;;;;29.67;6.50;;;;;;;;;;4919490;28;20036;-71
2023/04/12 05:52:05;;;;;;;36.78;5.55;;;;;;;;;;4932007;28;20130;-70
2023/04/12 05:54:33;;;;;;;30.73;5.82;;;;;;;;;;4953604;28;20048;-70
2023/04/12 05:56:59;;;;;;;38.30;6.57;;;;;;;;;;4901692;28;20050;-70
2023/04/12 05:59:24;;;;;;;39.83;7.38;;;;;;;;;;4913414;28;20047;-70
2023/04/12 06:01:49;;;;;;;35.53;6.13;;;;;;;;;;4923663;28;20122;-69
2023/04/12 06:04:17;;;;;;;48.17;6.68;;;;;;;;;;4921403;28;20081;-70
2023/04/12 06:06:42;;;;;;;45.65;7.32;;;;;;;;;;4918925;28;20055;-71
2023/04/12 06:09:08;;;;;;;42.90;6.13;;;;;;;;;;4914542;28;20047;-69
2023/04/12 06:11:34;;;;;;;46.58;6.90;;;;;;;;;;4921215;28;20756;-69
2023/04/12 06:14:04;;;;;;;53.45;7.50;;;;;;;;;;4919638;28;20069;-68
2023/04/12 06:16:30;;;;;;;42.35;5.63;;;;;;;;;;4917852;28;20128;-70
2023/04/12 06:18:57;;;;;;;54.20;6.80;;;;;;;;;;4921309;28;20051;-70
2023/04/12 06:21:23;;;;;;;49.72;6.45;;;;;;;;;;4920737;28;20039;-70
2023/04/12 06:23:51;;;;;;;50.67;6.10;;;;;;;;;;4926829;28;20054;-70
2023/04/12 06:26:16;;;;;;;59.05;7.15;;;;;;;;;;4919744;28;20551;-72
2023/04/12 06:28:43;;;;;;;44.47;6.30;;;;;;;;;;4928213;28;20039;-70
2023/04/12 06:31:11;;;;;;;40.58;6.55;;;;;;;;;;4928296;28;20117;-71
2023/04/12 06:33:37;;;;;;;33.17;5.57;;;;;;;;;;4923466;28;20191;-70
2023/04/12 06:36:02;;;;;;;51.83;5.95;;;;;;;;;;4922026;28;20108;-70
2023/04/12 06:38:27;;;;;;;44.88;5.63;;;;;;;;;;4919644;28;20058;-70
2023/04/12 06:40:53;;;;;;;45.53;6.10;;;;;;;;;;4915408;28;20097;-72
2023/04/12 06:43:19;;;;;;;47.03;6.03;;;;;;;;;;4916144;28;20047;-70
2023/04/12 06:45:45;;;;;;;60.13;7.15;;;;;;;;;;4911686;28;20135;-70
2023/04/12 06:48:10;;;;;;;47.88;7.15;;;;;;;;;;4919625;28;20753;-72
2023/04/12 06:50:35;;;;;;;53.03;5.78;;;;;;;;;;4917999;28;20401;-71
2023/04/12 06:53:00;;;;;;;46.67;6.10;;;;;;;;;;4933066;28;20031;-67
2023/04/12 06:55:28;;;;;;;42.30;5.50;;;;;;;;;;4918413;28;20039;-71
2023/04/12 06:57:53;;;;;;;46.88;6.15;;;;;;;;;;4918654;28;20055;-70
2023/04/12 07:00:18;;;;;;;38.78;5.78;;;;;;;;;;4920650;28;20280;-70
2023/04/12 07:02:44;;;;;;;49.20;6.03;;;;;;;;;;4917247;28;20063;-69
2023/04/12 07:05:09;;;;;;;43.80;5.55;;;;;;;;;;4920655;28;20128;-71
2023/04/12 07:07:34;;;;;;;44.30;5.80;;;;;;;;;;4921006;28;20152;-71
2023/04/12 07:10:00;;;;;;;46.53;6.22;;;;;;;;;;4919960;28;20157;-72
2023/04/12 07:12:25;;;;;;;47.35;6.05;;;;;;;;;;4918528;28;20126;-70
2023/04/12 07:14:50;;;;;;;46.17;5.68;;;;;;;;;;4911691;28;20066;-70
2023/04/12 07:17:15;;;;;;;41.88;5.82;;;;;;;;;;4920720;28;20094;-71
2023/04/12 07:19:42;;;;;;;42.03;6.35;;;;;;;;;;4919208;28;20082;-71
2023/04/12 07:22:08;;;;;;;38.67;5.80;;;;;;;;;;4916934;28;20048;-71
2023/04/12 07:24:33;;;;;;;39.53;6.45;;;;;;;;;;4948160;28;20054;-70
2023/04/12 07:26:58;;;;;;;34.17;5.20;;;;;;;;;;4919812;28;20173;-69
2023/04/12 07:29:24;;;;;;;28.83;5.15;;;;;;;;;;4918607;28;20043;-69
2023/04/12 07:31:49;;;;;;;34.03;5.40;;;;;;;;;;4917611;28;20040;-69
2023/04/12 07:34:17;;;;;;;27.40;4.90;;;;;;;;;;4921276;28;20037;-70
2023/04/12 07:36:45;;;;;;;27.45;4.82;;;;;;;;;;4918333;28;20043;-70
2023/04/12 07:39:13;;;;;;;25.80;4.32;;;;;;;;;;4916446;28;20042;-69
2023/04/12 07:41:39;;;;;;;30.30;4.55;;;;;;;;;;4934569;28;20061;-68
2023/04/12 07:44:05;;;;;;;21.02;4.63;;;;;;;;;;4916825;28;20074;-69
2023/04/12 07:46:32;;;;;;;21.23;3.97;;;;;;;;;;4920441;28;20039;-69
2023/04/12 07:48:57;;;;;;;24.65;3.90;;;;;;;;;;4918405;28;20241;-69
2023/04/12 07:51:23;;;;;;;26.23;4.10;;;;;;;;;;4917463;28;20739;-69
2023/04/12 07:53:50;;;;;;;23.25;3.80;;;;;;;;;;4915899;28;20051;-70
2023/04/12 07:56:16;;;;;;;27.30;3.90;;;;;;;;;;4918885;28;20146;-69
2023/04/12 07:58:41;;;;;;;25.85;3.65;;;;;;;;;;4918071;28;20043;-69
2023/04/12 08:01:06;;;;;;;28.40;4.72;;;;;;;;;;4948086;28;20039;-69
2023/04/12 08:03:31;;;;;;;26.75;5.25;;;;;;;;;;4916137;28;20047;-70
2023/04/12 08:05:57;;;;;;;29.90;4.38;;;;;;;;;;4918709;28;20047;-71
2023/04/12 08:08:22;;;;;;;30.85;4.80;;;;;;;;;;4924584;28;20043;-70
2023/04/12 08:10:48;;;;;;;28.15;4.70;;;;;;;;;;4917516;28;20427;-68
2023/04/12 08:13:13;;;;;;;24.08;3.83;;;;;;;;;;4918318;28;20043;-70
2023/04/12 08:15:39;;;;;;;25.33;3.95;;;;;;;;;;4922444;28;20051;-71
2023/04/12 08:18:05;;;;;;;26.38;4.68;;;;;;;;;;4951711;28;20032;-69
2023/04/12 08:20:30;;;;;;;22.98;3.88;;;;;;;;;;4917370;28;20377;-68
2023/04/12 08:22:58;;;;;;;20.17;3.40;;;;;;;;;;4918517;28;20080;-69
2023/04/12 08:25:23;;;;;;;19.42;3.08;;;;;;;;;;4919847;28;20185;-70
2023/04/12 08:27:50;;;;;;;17.75;3.08;;;;;;;;;;4917672;28;20046;-70
2023/04/12 08:30:16;;;;;;;15.73;3.08;;;;;;;;;;4924659;28;20113;-68
2023/04/12 08:32:43;;;;;;;15.43;3.30;;;;;;;;;;4934182;28;20109;-68
2023/04/12 08:35:08;;;;;;;14.65;2.75;;;;;;;;;;4901044;28;20035;-70
2023/04/12 08:37:36;;;;;;;15.45;3.25;;;;;;;;;;4921365;28;20041;-69
2023/04/12 08:40:04;;;;;;;17.10;2.95;;;;;;;;;;4922495;28;20040;-70
2023/04/12 08:42:32;;;;;;;18.23;3.22;;;;;;;;;;4919866;28;20043;-69
2023/04/12 08:44:57;;;;;;;16.23;3.35;;;;;;;;;;4930245;28;20047;-69
2023/04/12 08:47:23;;;;;;;20.58;3.47;;;;;;;;;;4919357;28;20082;-69
2023/04/12 08:49:48;;;;;;;18.08;3.05;;;;;;;;;;4921613;28;20031;-68
2023/04/12 08:52:14;;;;;;;17.23;3.15;;;;;;;;;;4921242;28;20070;-69
2023/04/12 08:54:39;;;;;;;20.08;3.60;;;;;;;;;;4919469;28;20515;-68
2023/04/12 08:57:06;;;;;;;18.75;3.00;;;;;;;;;;4918882;28;20039;-70
2023/04/12 08:59:32;;;;;;;18.30;2.80;;;;;;;;;;4919886;28;20059;-68
2023/04/12 09:01:58;;;;;;;19.73;3.13;;;;;;;;;;4919182;28;20063;-69
2023/04/12 09:04:23;;;;;;;17.50;2.67;;;;;;;;;;4918499;28;20105;-69
2023/04/12 09:06:49;;;;;;;15.98;3.00;;;;;;;;;;4920181;28;20046;-69
2023/04/12 09:09:14;;;;;;;16.73;3.10;;;;;;;;;;4919101;28;20081;-69
2023/04/12 09:11:42;;;;;;;17.17;2.72;;;;;;;;;;4916264;28;20058;-70
2023/04/12 09:14:23;;;;;;;15.88;3.65;;;;;;;;;;4918180;28;20403;-69
2023/04/12 09:16:49;;;;;;;15.65;3.13;;;;;;;;;;4919747;28;20671;-69
2023/04/12 09:19:15;;;;;;;15.10;2.88;;;;;;;;;;4915540;28;20159;-68
2023/04/12 09:21:54;;;;;;;14.98;2.50;;;;;;;;;;4916330;28;20035;-68
2023/04/12 09:24:22;;;;;;;19.10;3.03;;;;;;;;;;4916463;28;20051;-68
2023/04/12 09:26:48;;;;;;;20.08;2.92;;;;;;;;;;4919809;28;20358;-68
2023/04/12 09:29:22;;;;;;;17.60;3.40;;;;;;;;;;4950117;28;20073;-69
2023/04/12 09:31:58;;;;;;;23.25;3.20;;;;;;;;;;4918766;28;20089;-68
2023/04/12 09:34:24;;;;;;;17.40;2.53;;;;;;;;;;4917076;28;20626;-69
2023/04/12 09:36:49;;;;;;;18.08;2.95;;;;;;;;;;4917545;28;20039;-70
2023/04/12 09:39:17;;;;;;;15.80;2.72;;;;;;;;;;4915876;28;20032;-72
2023/04/12 09:41:42;;;;;;;17.65;2.90;;;;;;;;;;4914558;28;20070;-71
2023/04/12 09:44:08;;;;;;;18.48;3.45;;;;;;;;;;4915626;28;20075;-70
2023/04/12 09:46:33;;;;;;;15.82;3.17;;;;;;;;;;4917282;28;20039;-72
2023/04/12 09:49:02;;;;;;;17.60;3.00;;;;;;;;;;4924261;28;20081;-70
2023/04/12 09:51:28;;;;;;;23.17;3.95;;;;;;;;;;4916223;28;20063;-66
2023/04/12 09:53:58;;;;;;;21.17;3.13;;;;;;;;;;4917582;28;20455;-71
2023/04/12 09:56:35;;;;;;;18.38;3.40;;;;;;;;;;4917089;28;20052;-71
2023/04/12 09:59:04;;;;;;;19.98;3.40;;;;;;;;;;4916114;28;20426;-70
2023/04/12 10:01:35;;;;;;;19.00;3.15;;;;;;;;;;4917050;28;20035;-70
2023/04/12 10:04:00;;;;;;;16.55;3.38;;;;;;;;;;4945779;28;20047;-70
2023/04/12 10:06:26;;;;;;;18.25;3.78;;;;;;;;;;4914779;28;20042;-72
2023/04/12 10:08:52;;;;;;;23.08;3.45;;;;;;;;;;4912216;28;20114;-71
2023/04/12 10:11:18;;;;;;;23.63;3.95;;;;;;;;;;4947638;28;20126;-71
2023/04/12 10:13:43;;;;;;;17.75;3.45;;;;;;;;;;4917148;28;20112;-70
2023/04/12 10:16:09;;;;;;;21.02;3.25;;;;;;;;;;4939343;28;20043;-72
2023/04/12 10:18:37;;;;;;;15.13;2.88;;;;;;;;;;4946537;28;20040;-71
2023/04/12 10:21:03;;;;;;;21.85;3.22;;;;;;;;;;4917843;28;20477;-72
2023/04/12 10:23:30;;;;;;;17.55;3.17;;;;;;;;;;4917450;28;20050;-71
2023/04/12 10:25:56;;;;;;;23.15;3.05;;;;;;;;;;4916948;28;20170;-70
2023/04/12 10:28:21;;;;;;;17.95;2.90;;;;;;;;;;4916350;28;20137;-72
2023/04/12 10:30:49;;;;;;;23.00;3.75;;;;;;;;;;4914135;28;20092;-72
2023/04/12 10:33:18;;;;;;;18.50;2.85;;;;;;;;;;4913637;28;20089;-72
2023/04/12 10:35:56;;;;;;;24.55;4.07;;;;;;;;;;4916758;28;20348;-72
2023/04/12 10:38:26;;;;;;;20.77;3.45;;;;;;;;;;4929552;28;20065;-72
2023/04/12 10:41:07;;;;;;;23.80;3.75;;;;;;;;;;4917466;28;20547;-72
2023/04/12 10:43:32;;;;;;;18.52;3.20;;;;;;;;;;4916417;28;20104;-72
2023/04/12 10:46:05;;;;;;;22.88;3.20;;;;;;;;;;4916942;28;20039;-71
2023/04/12 10:48:31;;;;;;;21.67;3.30;;;;;;;;;;4916800;28;20032;-71
2023/04/12 10:51:28;;;;;;;17.77;3.35;;;;;;;;;;4918591;28;20137;-71
2023/04/12 10:54:13;;;;;;;16.13;3.53;;;;;;;;;;4945610;28;20039;-71
2023/04/12 10:56:39;;;;;;;18.00;3.05;;;;;;;;;;4916494;28;20510;-72
2023/04/12 10:59:07;;;;;;;20.77;3.40;;;;;;;;;;4915093;28;20039;-71
2023/04/12 11:01:33;;;;;;;15.55;3.03;;;;;;;;;;4918514;28;20516;-72
2023/04/12 11:04:07;;;;;;;17.80;2.88;;;;;;;;;;4916627;28;20041;-73
2023/04/12 11:06:57;;;;;;;17.20;3.40;;;;;;;;;;4916469;28;20492;-71
2023/04/12 11:09:24;;;;;;;14.70;2.92;;;;;;;;;;4916929;28;20081;-72
2023/04/12 11:11:49;;;;;;;14.75;2.65;;;;;;;;;;4917803;28;20039;-72
2023/04/12 11:14:15;;;;;;;13.30;3.08;;;;;;;;;;4895324;28;20460;-72
2023/04/12 11:16:59;;;;;;;17.77;2.65;;;;;;;;;;4913963;28;20396;-73
2023/04/12 11:19:24;;;;;;;14.02;2.80;;;;;;;;;;4915599;28;20573;-72
2023/04/12 11:21:50;;;;;;;13.02;2.55;;;;;;;;;;4916238;28;20040;-73
2023/04/12 11:24:17;;;;;;;16.92;2.95;;;;;;;;;;4914642;28;20043;-71
2023/04/12 11:26:43;;;;;;;18.00;3.13;;;;;;;;;;4916516;28;20051;-71
2023/04/12 11:29:11;;;;;;;17.85;3.47;;;;;;;;;;4914283;28;20054;-71
2023/04/12 11:31:39;;;;;;;17.63;3.05;;;;;;;;;;4914337;28;20428;-70
2023/04/12 11:34:04;;;;;;;18.77;3.17;;;;;;;;;;4911589;28;20288;-70
2023/04/12 11:36:30;;;;;;;18.27;3.40;;;;;;;;;;4912530;28;20717;-70
2023/04/12 11:38:55;;;;;;;18.42;3.22;;;;;;;;;;4912280;28;20122;-70
2023/04/12 11:41:20;;;;;;;15.00;3.28;;;;;;;;;;4917722;28;20044;-71
2023/04/12 11:43:48;;;;;;;15.20;2.95;;;;;;;;;;4917331;28;20474;-71
2023/04/12 11:46:15;;;;;;;13.90;2.65;;;;;;;;;;4919327;28;20544;-69
2023/04/12 11:48:43;;;;;;;24.73;3.53;;;;;;;;;;4920965;28;20046;-70
2023/04/12 11:51:18;;;;;;;15.55;2.80;;;;;;;;;;4917520;28;20040;-69
2023/04/12 11:53:44;;;;;;;21.17;3.08;;;;;;;;;;4928917;28;20100;-69
2023/04/12 11:56:12;;;;;;;20.02;3.95;;;;;;;;;;4932518;28;21984;-71
2023/04/12 11:58:37;;;;;;;24.15;3.35;;;;;;;;;;4913917;28;20912;-70
2023/04/12 12:01:05;;;;;;;25.08;4.38;;;;;;;;;;4928822;28;20515;-70
2023/04/12 12:03:32;;;;;;;24.02;3.90;;;;;;;;;;4920162;28;20126;-70
2023/04/12 12:05:58;;;;;;;21.85;3.60;;;;;;;;;;4902206;28;20646;-69
2023/04/12 12:08:23;;;;;;;20.23;3.72;;;;;;;;;;4913548;28;20043;-71
2023/04/12 12:10:48;;;;;;;20.05;3.15;;;;;;;;;;4919237;28;20294;-69
2023/04/12 12:13:15;;;;;;;19.88;3.47;;;;;;;;;;4919246;28;20670;-69
2023/04/12 12:15:46;;;;;;;17.60;3.03;;;;;;;;;;4917705;28;20134;-70
2023/04/12 12:18:12;;;;;;;16.83;2.92;;;;;;;;;;4918033;28;20040;-70
2023/04/12 12:20:55;;;;;;;22.88;2.97;;;;;;;;;;4916811;28;20195;-69
2023/04/12 12:23:30;;;;;;;18.10;3.13;;;;;;;;;;4918644;28;20504;-70
2023/04/12 12:25:56;;;;;;;17.73;2.80;;;;;;;;;;4917477;28;20106;-70
2023/04/12 12:28:24;;;;;;;20.58;3.42;;;;;;;;;;4919411;28;20042;-69
2023/04/12 12:30:56;;;;;;;19.42;3.20;;;;;;;;;;4918571;28;20338;-70
2023/04/12 12:33:22;;;;;;;21.00;3.17;;;;;;;;;;4917131;28;20035;-68
2023/04/12 12:35:54;;;;;;;23.70;3.63;;;;;;;;;;4926198;28;20035;-69
2023/04/12 12:38:20;;;;;;;20.40;3.92;;;;;;;;;;4915615;28;20094;-70
2023/04/12 12:40:47;;;;;;;22.00;3.53;;;;;;;;;;4918264;28;20771;-70
2023/04/12 12:43:22;;;;;;;19.05;3.75;;;;;;;;;;4945196;28;20245;-69
2023/04/12 12:45:47;;;;;;;23.77;3.60;;;;;;;;;;4917054;28;20035;-69
2023/04/12 12:48:15;;;;;;;18.42;2.50;;;;;;;;;;4917619;28;20114;-70
2023/04/12 12:50:40;;;;;;;12.23;2.75;;;;;;;;;;4916762;28;20177;-71
2023/04/12 12:53:05;;;;;;;21.95;3.05;;;;;;;;;;4914942;28;20032;-71
2023/04/12 12:55:31;;;;;;;16.92;2.67;;;;;;;;;;4944331;28;20189;-70
2023/04/12 12:57:57;;;;;;;12.65;2.13;;;;;;;;;;4916013;28;20039;-70
2023/04/12 13:00:23;;;;;;;12.57;1.77;;;;;;;;;;4932813;28;20028;-70
2023/04/12 13:02:49;;;;;;;11.45;2.00;;;;;;;;;;4918720;28;20392;-71
2023/04/12 13:05:15;;;;;;;13.77;2.30;;;;;;;;;;4918221;28;20141;-70
2023/04/12 13:07:40;;;;;;;12.70;2.47;;;;;;;;;;4930922;28;20035;-70
2023/04/12 13:10:06;;;;;;;12.25;2.40;;;;;;;;;;4917851;28;20039;-69
2023/04/12 13:12:31;;;;;;;10.18;2.25;;;;;;;;;;4911912;28;20564;-70
2023/04/12 13:14:59;;;;;;;11.70;2.38;;;;;;;;;;4946598;28;20552;-71
2023/04/12 13:17:24;;;;;;;16.85;2.25;;;;;;;;;;4917934;28;20302;-68
2023/04/12 13:19:50;;;;;;;12.57;2.15;;;;;;;;;;4918118;28;20451;-71
2023/04/12 13:22:16;;;;;;;14.13;2.35;;;;;;;;;;4916133;28;20174;-69
2023/04/12 13:24:44;;;;;;;15.07;2.45;;;;;;;;;;4916622;28;20070;-71
2023/04/12 13:27:12;;;;;;;15.23;2.55;;;;;;;;;;4919027;28;20051;-70
2023/04/12 13:29:37;;;;;;;11.13;2.33;;;;;;;;;;4917699;28;20626;-71
2023/04/12 13:32:03;;;;;;;16.38;2.38;;;;;;;;;;4928562;28;20046;-71
2023/04/12 13:34:32;;;;;;;10.38;2.20;;;;;;;;;;4919258;28;20035;-69
2023/04/12 13:36:57;;;;;;;12.63;2.55;;;;;;;;;;4917416;28;20035;-69
2023/04/12 13:39:23;;;;;;;10.27;1.75;;;;;;;;;;4932692;28;21837;-69
2023/04/12 13:41:48;;;;;;;20.25;2.67;;;;;;;;;;4918370;28;20531;-69
2023/04/12 13:44:14;;;;;;;13.60;2.35;;;;;;;;;;4945435;28;20522;-70
2023/04/12 13:46:39;;;;;;;15.50;2.70;;;;;;;;;;4918875;28;20047;-70
2023/04/12 13:49:04;;;;;;;8.00;1.45;;;;;;;;;;4919635;28;20036;-69
2023/04/12 13:51:31;;;;;;;6.30;1.40;;;;;;;;;;4917977;28;20826;-69
2023/04/12 13:53:56;;;;;;;7.35;1.50;;;;;;;;;;4917694;28;20031;-70
2023/04/12 13:56:22;;;;;;;11.35;1.92;;;;;;;;;;4916319;28;20039;-70
2023/04/12 13:58:47;;;;;;;10.18;1.77;;;;;;;;;;4913962;28;20042;-70
2023/04/12 14:01:12;;;;;;;9.70;1.85;;;;;;;;;;4918393;28;20031;-70
2023/04/12 14:03:38;;;;;;;11.27;1.95;;;;;;;;;;4915926;28;20382;-63
2023/04/12 14:06:03;;;;;;;8.18;1.50;;;;;;;;;;4917791;28;20032;-63
2023/04/12 14:08:31;;;;;;;10.52;1.83;;;;;;;;;;4917931;28;20036;-63
2023/04/12 14:10:56;;;;;;;10.15;2.50;;;;;;;;;;4915855;28;20051;-62
2023/04/12 14:13:22;;;;;;;12.13;1.98;;;;;;;;;;4920010;28;20027;-63
2023/04/12 14:15:48;;;;;;;7.35;1.50;;;;;;;;;;4947952;28;20101;-63
2023/04/12 14:18:16;;;;;;;8.18;1.85;;;;;;;;;;4924023;28;20943;-64
2023/04/12 14:20:48;;;;;;;9.25;1.60;;;;;;;;;;4915710;28;20043;-63
2023/04/12 14:23:13;;;;;;;11.88;1.70;;;;;;;;;;4918795;28;20039;-64
2023/04/12 14:25:39;;;;;;;12.88;3.13;;;;;;;;;;4920638;28;20114;-63
2023/04/12 14:28:05;;;;;;;7.18;1.48;;;;;;;;;;4916427;28;20067;-64
2023/04/12 14:30:32;;;;;;;8.88;1.55;;;;;;;;;;4950343;28;20806;-64